sensor_id;sensor_type;location;lat;lon;timestamp;pressure;altitude;pressure_sealevel;temperature;humidity
42725;BME280;28369;44.046;23.014;2023-03-03T15:44:18;101194.03;;;17.53;46.62
42725;BME280;28369;44.046;23.014;2023-03-03T16:04:05;101043.09;;;16.36;46.95
42725;BME280;28369;44.046;23.014;2023-03-03T16:12:48;101092.00;;;16.60;47.33
42725;BME280;28369;44.046;23.014;2023-03-03T16:27:19;101218.81;;;17.19;47.58
42725;BME280;28369;44.046;23.014;2023-03-03T16:33:43;101213.69;;;16.91;48.03
42725;BME280;28369;44.046;23.014;2023-03-03T16:42:25;101037.63;;;15.49;49.21
42725;BME280;28369;44.046;23.014;2023-03-03T16:45:14;101234.50;;;16.59;49.45
42725;BME280;28369;44.046;23.014;2023-03-03T16:51:15;101213.81;;;16.27;50.36
42725;BME280;28369;44.046;23.014;2023-03-03T16:56:45;101212.44;;;16.41;50.43
42725;BME280;28369;44.046;23.014;2023-03-03T17:22:39;101240.38;;;16.89;49.79
42725;BME280;28369;44.046;23.014;2023-03-03T17:41:02;101240.91;;;16.75;49.90
42725;BME280;28369;44.046;23.014;2023-03-03T17:46:38;101213.25;;;16.78;49.65
42725;BME280;28369;44.046;23.014;2023-03-03T17:52:20;101245.13;;;16.86;49.74
42725;BME280;28369;44.046;23.014;2023-03-03T18:25:16;101242.47;;;16.41;50.29
42725;BME280;28369;44.046;23.014;2023-03-03T18:27:43;101136.88;;;15.55;50.78
42725;BME280;28369;44.046;23.014;2023-03-03T18:30:52;101264.63;;;16.32;50.77
42725;BME280;28369;44.046;23.014;2023-03-03T18:40:32;101270.81;;;16.23;50.66
42725;BME280;28369;44.046;23.014;2023-03-03T18:52:26;101283.09;;;15.41;52.07
42725;BME280;28369;44.046;23.014;2023-03-03T18:55:21;101292.84;;;15.30;52.63
42725;BME280;28369;44.046;23.014;2023-03-03T18:58:22;101282.84;;;15.24;52.21
42725;BME280;28369;44.046;23.014;2023-03-03T19:01:12;101283.16;;;15.01;52.95
42725;BME280;28369;44.046;23.014;2023-03-03T19:06:53;101292.50;;;14.96;53.13
42725;BME280;28369;44.046;23.014;2023-03-03T19:09:19;101255.66;;;14.75;53.40
42725;BME280;28369;44.046;23.014;2023-03-03T19:12:07;101293.25;;;14.78;53.88
42725;BME280;28369;44.046;23.014;2023-03-03T19:14:39;101252.69;;;14.58;53.51
42725;BME280;28369;44.046;23.014;2023-03-03T19:20:06;101191.00;;;14.09;53.38
42725;BME280;28369;44.046;23.014;2023-03-03T19:22:43;101299.75;;;14.55;53.85
42725;BME280;28369;44.046;23.014;2023-03-03T19:25:26;101277.94;;;14.62;53.91
42725;BME280;28369;44.046;23.014;2023-03-03T19:33:09;101325.09;;;14.57;54.51
42725;BME280;28369;44.046;23.014;2023-03-03T19:58:10;101292.88;;;14.13;54.40
42725;BME280;28369;44.046;23.014;2023-03-03T20:00:59;101304.69;;;14.09;54.90
42725;BME280;28369;44.046;23.014;2023-03-03T20:11:46;101324.69;;;14.52;53.74
42725;BME280;28369;44.046;23.014;2023-03-03T20:14:27;101308.06;;;14.21;54.29
42725;BME280;28369;44.046;23.014;2023-03-03T20:17:11;101195.78;;;13.45;54.64
42725;BME280;28369;44.046;23.014;2023-03-03T20:31:30;101282.31;;;14.13;54.24
42725;BME280;28369;44.046;23.014;2023-03-03T20:37:10;101316.16;;;14.29;53.96
42725;BME280;28369;44.046;23.014;2023-03-03T20:42:57;101323.09;;;14.10;54.18
42725;BME280;28369;44.046;23.014;2023-03-03T21:04:34;101196.69;;;13.75;53.11
42725;BME280;28369;44.046;23.014;2023-03-03T21:07:01;101254.78;;;14.25;52.55
42725;BME280;28369;44.046;23.014;2023-03-03T21:09:30;101173.53;;;13.57;52.80
42725;BME280;28369;44.046;23.014;2023-03-03T21:11:57;101314.91;;;14.43;52.55
42725;BME280;28369;44.046;23.014;2023-03-03T21:14:24;101313.38;;;14.21;52.90
42725;BME280;28369;44.046;23.014;2023-03-03T21:16:52;101271.59;;;14.05;53.16
42725;BME280;28369;44.046;23.014;2023-03-03T21:19:27;101122.56;;;13.26;52.49
42725;BME280;28369;44.046;23.014;2023-03-03T21:21:54;101266.34;;;13.74;53.24
42725;BME280;28369;44.046;23.014;2023-03-03T21:24:19;101178.94;;;13.15;53.68
42725;BME280;28369;44.046;23.014;2023-03-03T21:27:12;101297.00;;;13.96;54.09
42725;BME280;28369;44.046;23.014;2023-03-03T21:29:34;101244.22;;;13.65;53.71
42725;BME280;28369;44.046;23.014;2023-03-03T21:32:02;101245.00;;;13.56;54.18
42725;BME280;28369;44.046;23.014;2023-03-03T21:36:59;101214.16;;;13.56;53.58
42725;BME280;28369;44.046;23.014;2023-03-03T21:44:47;101295.09;;;14.08;53.54
42725;BME280;28369;44.046;23.014;2023-03-03T21:47:22;101274.34;;;13.93;52.99
42725;BME280;28369;44.046;23.014;2023-03-03T21:49:50;101246.19;;;13.73;52.88
42725;BME280;28369;44.046;23.014;2023-03-03T21:52:17;101268.28;;;13.72;53.18
42725;BME280;28369;44.046;23.014;2023-03-03T21:54:44;101276.16;;;13.52;54.12
42725;BME280;28369;44.046;23.014;2023-03-03T21:57:11;101252.47;;;13.41;54.26
42725;BME280;28369;44.046;23.014;2023-03-03T21:59:36;101268.44;;;13.39;55.06
42725;BME280;28369;44.046;23.014;2023-03-03T22:02:03;101258.28;;;13.35;54.76
42725;BME280;28369;44.046;23.014;2023-03-03T22:04:29;101286.13;;;13.48;54.69
42725;BME280;28369;44.046;23.014;2023-03-03T22:06:55;101243.81;;;13.39;54.30
42725;BME280;28369;44.046;23.014;2023-03-03T22:09:20;101288.00;;;13.58;54.24
42725;BME280;28369;44.046;23.014;2023-03-03T22:11:46;101143.78;;;12.84;53.90
42725;BME280;28369;44.046;23.014;2023-03-03T22:14:12;101155.59;;;12.58;54.84
42725;BME280;28369;44.046;23.014;2023-03-03T22:16:37;101253.22;;;13.31;54.21
42725;BME280;28369;44.046;23.014;2023-03-03T22:19:03;101285.97;;;13.19;55.23
42725;BME280;28369;44.046;23.014;2023-03-03T22:21:29;101096.09;;;12.02;55.55
42725;BME280;28369;44.046;23.014;2023-03-03T22:23:55;101251.53;;;13.00;55.04
42725;BME280;28369;44.046;23.014;2023-03-03T22:26:20;101241.91;;;13.20;54.53
42725;BME280;28369;44.046;23.014;2023-03-03T22:28:47;101093.84;;;12.61;54.24
42725;BME280;28369;44.046;23.014;2023-03-03T22:31:13;101128.38;;;12.79;53.80
42725;BME280;28369;44.046;23.014;2023-03-03T22:33:39;101085.16;;;12.80;53.02
42725;BME280;28369;44.046;23.014;2023-03-03T22:36:05;101273.00;;;13.68;53.37
42725;BME280;28369;44.046;23.014;2023-03-03T22:38:31;101279.22;;;13.57;53.61
42725;BME280;28369;44.046;23.014;2023-03-03T22:40:56;101251.06;;;13.37;53.44
42725;BME280;28369;44.046;23.014;2023-03-03T22:43:22;101235.66;;;13.42;52.99
42725;BME280;28369;44.046;23.014;2023-03-03T22:45:47;101065.25;;;12.35;53.21
42725;BME280;28369;44.046;23.014;2023-03-03T22:48:13;101252.78;;;13.47;53.00
42725;BME280;28369;44.046;23.014;2023-03-03T22:50:38;101258.84;;;13.69;52.53
42725;BME280;28369;44.046;23.014;2023-03-03T22:53:05;101281.00;;;13.97;51.79
42725;BME280;28369;44.046;23.014;2023-03-03T22:55:31;101304.13;;;13.95;51.98
42725;BME280;28369;44.046;23.014;2023-03-03T22:57:58;101098.72;;;12.44;52.25
42725;BME280;28369;44.046;23.014;2023-03-03T23:00:24;101284.63;;;13.56;52.09
42725;BME280;28369;44.046;23.014;2023-03-03T23:02:49;101175.94;;;12.99;52.27
42725;BME280;28369;44.046;23.014;2023-03-03T23:05:15;101279.47;;;13.54;52.16
42725;BME280;28369;44.046;23.014;2023-03-03T23:07:41;101254.00;;;13.22;53.13
42725;BME280;28369;44.046;23.014;2023-03-03T23:10:07;101117.38;;;12.32;53.45
42725;BME280;28369;44.046;23.014;2023-03-03T23:12:33;101156.09;;;12.73;52.87
42725;BME280;28369;44.046;23.014;2023-03-03T23:14:59;101144.91;;;12.60;52.99
42725;BME280;28369;44.046;23.014;2023-03-03T23:17:24;101237.03;;;13.36;52.41
42725;BME280;28369;44.046;23.014;2023-03-03T23:19:50;101233.16;;;13.19;52.77
42725;BME280;28369;44.046;23.014;2023-03-03T23:22:16;101244.00;;;13.26;52.58
42725;BME280;28369;44.046;23.014;2023-03-03T23:24:42;101285.72;;;13.43;52.19
42725;BME280;28369;44.046;23.014;2023-03-03T23:27:09;101297.16;;;13.94;51.32
42725;BME280;28369;44.046;23.014;2023-03-03T23:29:35;101269.84;;;13.84;50.81
42725;BME280;28369;44.046;23.014;2023-03-03T23:32:02;101257.63;;;13.00;51.47
42725;BME280;28369;44.046;23.014;2023-03-03T23:34:27;101224.84;;;12.72;51.42
42725;BME280;28369;44.046;23.014;2023-03-03T23:36:53;101102.22;;;11.91;51.77
42725;BME280;28369;44.046;23.014;2023-03-03T23:39:19;101163.50;;;12.37;51.72
42725;BME280;28369;44.046;23.014;2023-03-03T23:41:44;101239.09;;;12.69;51.93
42725;BME280;28369;44.046;23.014;2023-03-03T23:44:11;101249.78;;;12.89;52.10
42725;BME280;28369;44.046;23.014;2023-03-03T23:46:36;101270.00;;;13.00;51.68
42725;BME280;28369;44.046;23.014;2023-03-03T23:49:03;101279.41;;;12.92;52.17
42725;BME280;28369;44.046;23.014;2023-03-03T23:51:28;101246.28;;;12.67;51.85
42725;BME280;28369;44.046;23.014;2023-03-03T23:53:55;101185.22;;;12.30;52.04
42725;BME280;28369;44.046;23.014;2023-03-03T23:56:20;101060.31;;;11.56;51.87
42725;BME280;28369;44.046;23.014;2023-03-03T23:58:46;101305.47;;;13.07;52.10
